Time;durP1;ratioP1;P1;durP2;ratioP2;P2;SDS_P1;SDS_P2;PMS_P1;PMS_P2;Temp;Humidity;BMP_temperature;BMP_pressure;BME280_temperature;BME280_humidity;BME280_pressure;Samples;Min_cycle;Max_cycle;Signal;HPM_P1;HPM_P2
2023/04/27 00:00:46;;;;;;;0.53;0.53;;;;;;;;;;5097353;28;20183;-84
2023/04/27 00:03:12;;;;;;;0.60;0.60;;;;;;;;;;5097581;28;20629;-84
2023/04/27 00:05:38;;;;;;;0.60;0.60;;;;;;;;;;5097305;28;20202;-85
2023/04/27 00:08:05;;;;;;;0.60;0.60;;;;;;;;;;5096196;28;20938;-85
2023/04/27 00:10:31;;;;;;;0.60;0.60;;;;;;;;;;5097790;28;20169;-84
2023/04/27 00:12:57;;;;;;;0.67;0.67;;;;;;;;;;5095836;28;20197;-84
2023/04/27 00:15:23;;;;;;;0.60;0.60;;;;;;;;;;5095900;28;20278;-84
2023/04/27 00:17:49;;;;;;;0.60;0.60;;;;;;;;;;5096520;28;20633;-85
2023/04/27 00:20:15;;;;;;;0.70;0.70;;;;;;;;;;5097529;28;20195;-84
2023/04/27 00:22:41;;;;;;;0.70;0.70;;;;;;;;;;5095809;28;20186;-85
2023/04/27 00:25:07;;;;;;;0.50;0.50;;;;;;;;;;5095461;28;20201;-85
2023/04/27 00:27:33;;;;;;;0.70;0.70;;;;;;;;;;5096083;28;20217;-85
2023/04/27 00:29:59;;;;;;;0.67;0.67;;;;;;;;;;5096612;28;20184;-85
2023/04/27 00:32:25;;;;;;;0.60;0.60;;;;;;;;;;5096298;28;20181;-84
2023/04/27 00:34:51;;;;;;;0.50;0.50;;;;;;;;;;5096709;28;20190;-84
2023/04/27 00:37:18;;;;;;;0.70;0.70;;;;;;;;;;5096560;28;20177;-84
2023/04/27 00:39:44;;;;;;;0.70;0.70;;;;;;;;;;5097095;28;20166;-84
2023/04/27 00:42:14;;;;;;;0.70;0.70;;;;;;;;;;5095739;28;20178;-85
2023/04/27 00:44:40;;;;;;;0.60;0.60;;;;;;;;;;5095470;28;20194;-84
2023/04/27 00:47:06;;;;;;;0.63;0.63;;;;;;;;;;5096035;28;20209;-85
2023/04/27 00:49:32;;;;;;;0.60;0.60;;;;;;;;;;5096156;28;20547;-84
2023/04/27 00:51:58;;;;;;;0.70;0.70;;;;;;;;;;5096694;28;20281;-84
2023/04/27 00:54:25;;;;;;;0.70;0.70;;;;;;;;;;5096038;28;20194;-84
2023/04/27 00:56:52;;;;;;;0.70;0.70;;;;;;;;;;5096717;28;20181;-84
2023/04/27 00:59:18;;;;;;;0.60;0.60;;;;;;;;;;5095539;28;20192;-85
2023/04/27 01:01:45;;;;;;;0.70;0.70;;;;;;;;;;5096315;28;20201;-85
2023/04/27 01:04:12;;;;;;;0.70;0.70;;;;;;;;;;5095467;28;20197;-84
2023/04/27 01:06:38;;;;;;;0.80;0.80;;;;;;;;;;5096127;28;20277;-85
2023/04/27 01:09:04;;;;;;;0.70;0.70;;;;;;;;;;5095701;28;20201;-84
2023/04/27 01:11:30;;;;;;;0.60;0.60;;;;;;;;;;5095680;28;20173;-85
2023/04/27 01:13:56;;;;;;;0.70;0.70;;;;;;;;;;5094458;28;20626;-85
2023/04/27 01:16:22;;;;;;;0.70;0.70;;;;;;;;;;5094146;28;20177;-84
2023/04/27 01:18:48;;;;;;;0.70;0.70;;;;;;;;;;5095165;28;20667;-84
2023/04/27 01:21:14;;;;;;;0.60;0.60;;;;;;;;;;5094995;28;20173;-84
2023/04/27 01:23:40;;;;;;;0.67;0.67;;;;;;;;;;5094908;28;20197;-84
2023/04/27 01:26:06;;;;;;;0.60;0.60;;;;;;;;;;5095590;28;20177;-84
2023/04/27 01:28:32;;;;;;;0.70;0.70;;;;;;;;;;5095264;28;20170;-84
2023/04/27 01:30:58;;;;;;;0.63;0.63;;;;;;;;;;5094741;28;20188;-84
2023/04/27 01:33:24;;;;;;;0.70;0.70;;;;;;;;;;5095136;28;20250;-84
2023/04/27 01:35:50;;;;;;;0.60;0.60;;;;;;;;;;5094777;28;20669;-84
2023/04/27 01:38:16;;;;;;;0.70;0.70;;;;;;;;;;5095345;28;20197;-84
2023/04/27 01:40:42;;;;;;;0.60;0.60;;;;;;;;;;5095047;28;20589;-85
2023/04/27 01:43:08;;;;;;;0.70;0.70;;;;;;;;;;5094560;28;20173;-84
2023/04/27 01:45:34;;;;;;;0.60;0.60;;;;;;;;;;5095136;28;20547;-85
2023/04/27 01:48:00;;;;;;;0.60;0.60;;;;;;;;;;5095237;28;20213;-84
2023/04/27 01:50:26;;;;;;;0.60;0.60;;;;;;;;;;5094932;28;20824;-84
2023/04/27 01:52:52;;;;;;;0.63;0.63;;;;;;;;;;5095206;28;20178;-85
2023/04/27 01:55:18;;;;;;;0.60;0.60;;;;;;;;;;5094972;28;20225;-85
2023/04/27 01:57:44;;;;;;;0.60;0.60;;;;;;;;;;5094808;28;20573;-84
2023/04/27 02:00:11;;;;;;;0.80;0.80;;;;;;;;;;5094775;28;20264;-85
2023/04/27 02:02:37;;;;;;;0.60;0.60;;;;;;;;;;5094740;28;20178;-84
2023/04/27 02:05:03;;;;;;;0.60;0.60;;;;;;;;;;5095602;28;20541;-84
2023/04/27 02:07:29;;;;;;;0.60;0.60;;;;;;;;;;5095043;28;20278;-84
2023/04/27 02:09:55;;;;;;;0.70;0.70;;;;;;;;;;5095495;28;20265;-84
2023/04/27 02:12:21;;;;;;;0.70;0.70;;;;;;;;;;5094651;28;20264;-84
2023/04/27 02:14:47;;;;;;;0.70;0.70;;;;;;;;;;5095079;28;20641;-83
2023/04/27 02:17:13;;;;;;;0.60;0.60;;;;;;;;;;5094991;28;20243;-84
2023/04/27 02:19:39;;;;;;;0.60;0.60;;;;;;;;;;5095666;28;20205;-84
2023/04/27 02:22:04;;;;;;;0.60;0.60;;;;;;;;;;5096404;28;20174;-84
2023/04/27 02:24:30;;;;;;;0.60;0.60;;;;;;;;;;5095382;28;20735;-85
2023/04/27 02:26:56;;;;;;;0.53;0.53;;;;;;;;;;5095954;28;20259;-85
2023/04/27 02:29:22;;;;;;;0.67;0.67;;;;;;;;;;5096534;28;21261;-85
2023/04/27 02:31:48;;;;;;;0.60;0.60;;;;;;;;;;5096638;28;20670;-84
2023/04/27 02:34:14;;;;;;;0.80;0.80;;;;;;;;;;5095199;28;20206;-85
2023/04/27 02:36:40;;;;;;;0.60;0.60;;;;;;;;;;5095985;28;20197;-84
2023/04/27 02:39:06;;;;;;;0.70;0.70;;;;;;;;;;5097084;28;20178;-84
2023/04/27 02:41:32;;;;;;;0.60;0.60;;;;;;;;;;5098666;28;20190;-84
2023/04/27 02:43:58;;;;;;;0.70;0.70;;;;;;;;;;5097717;28;20292;-85
2023/04/27 02:46:25;;;;;;;0.80;0.80;;;;;;;;;;5099343;28;20267;-84
2023/04/27 02:48:51;;;;;;;0.60;0.60;;;;;;;;;;5098650;28;20325;-85
2023/04/27 02:51:17;;;;;;;0.70;0.70;;;;;;;;;;5098247;28;20170;-84
2023/04/27 02:53:43;;;;;;;0.70;0.70;;;;;;;;;;5097435;28;20590;-84
2023/04/27 02:56:09;;;;;;;0.70;0.70;;;;;;;;;;5097093;28;20281;-83
2023/04/27 02:58:36;;;;;;;0.60;0.60;;;;;;;;;;5097895;28;20194;-85
2023/04/27 03:01:02;;;;;;;0.60;0.60;;;;;;;;;;5098468;28;20174;-84
2023/04/27 03:03:27;;;;;;;0.60;0.60;;;;;;;;;;5098085;28;20198;-85
2023/04/27 03:05:53;;;;;;;0.70;0.70;;;;;;;;;;5098786;28;20268;-85
2023/04/27 03:08:19;;;;;;;0.60;0.60;;;;;;;;;;5100477;28;20214;-84
2023/04/27 03:10:45;;;;;;;0.53;0.53;;;;;;;;;;5099288;28;20635;-85
2023/04/27 03:13:11;;;;;;;0.60;0.60;;;;;;;;;;5097518;28;20224;-85
2023/04/27 03:15:37;;;;;;;0.80;0.80;;;;;;;;;;5097855;28;20178;-85
2023/04/27 03:18:04;;;;;;;0.60;0.60;;;;;;;;;;5099223;28;20178;-84
2023/04/27 03:20:30;;;;;;;0.60;0.60;;;;;;;;;;5098302;28;20264;-85
2023/04/27 03:22:56;;;;;;;0.60;0.60;;;;;;;;;;5096645;28;20260;-84
2023/04/27 03:25:22;;;;;;;0.70;0.70;;;;;;;;;;5098174;28;20298;-84
2023/04/27 03:27:49;;;;;;;0.60;0.60;;;;;;;;;;5098429;28;20216;-85
2023/04/27 03:30:15;;;;;;;0.60;0.60;;;;;;;;;;5099205;28;20532;-84
2023/04/27 03:32:41;;;;;;;0.80;0.80;;;;;;;;;;5098464;28;20184;-84
2023/04/27 03:35:08;;;;;;;0.60;0.60;;;;;;;;;;5099867;28;20186;-84
2023/04/27 03:37:34;;;;;;;0.70;0.70;;;;;;;;;;5098758;28;20174;-84
2023/04/27 03:40:00;;;;;;;0.70;0.70;;;;;;;;;;5099049;28;20231;-84
2023/04/27 03:42:26;;;;;;;0.70;0.70;;;;;;;;;;5098596;28;20170;-84
2023/04/27 03:44:52;;;;;;;0.70;0.70;;;;;;;;;;5100356;28;20201;-84
2023/04/27 03:47:18;;;;;;;0.60;0.60;;;;;;;;;;5099083;28;20214;-84
2023/04/27 03:49:45;;;;;;;0.60;0.60;;;;;;;;;;5098015;28;20170;-84
2023/04/27 03:52:11;;;;;;;0.70;0.70;;;;;;;;;;5097763;28;20182;-84
2023/04/27 03:54:37;;;;;;;0.60;0.60;;;;;;;;;;5098878;28;20257;-84
2023/04/27 03:57:03;;;;;;;0.67;0.67;;;;;;;;;;5097688;28;20212;-85
2023/04/27 03:59:29;;;;;;;0.60;0.60;;;;;;;;;;5098677;28;20245;-85
2023/04/27 04:01:56;;;;;;;0.70;0.70;;;;;;;;;;5099974;28;20181;-85
2023/04/27 04:04:22;;;;;;;0.60;0.60;;;;;;;;;;5098519;28;20217;-85
2023/04/27 04:06:48;;;;;;;0.77;0.77;;;;;;;;;;5097919;28;20283;-84
2023/04/27 04:09:14;;;;;;;0.70;0.70;;;;;;;;;;5098026;28;20613;-84
2023/04/27 04:11:40;;;;;;;0.60;0.60;;;;;;;;;;5097803;28;20173;-84
2023/04/27 04:14:06;;;;;;;0.70;0.70;;;;;;;;;;5095824;28;20251;-85
2023/04/27 04:16:33;;;;;;;0.70;0.70;;;;;;;;;;5097427;28;20186;-85
2023/04/27 04:18:59;;;;;;;0.73;0.73;;;;;;;;;;5096978;28;20178;-85
2023/04/27 04:21:25;;;;;;;0.70;0.70;;;;;;;;;;5096138;28;20174;-86
2023/04/27 04:23:51;;;;;;;0.60;0.60;;;;;;;;;;5095598;28;20204;-85
2023/04/27 04:26:17;;;;;;;0.77;0.77;;;;;;;;;;5095642;28;20641;-85
2023/04/27 04:28:44;;;;;;;0.70;0.70;;;;;;;;;;5097573;28;20205;-84
2023/04/27 04:31:10;;;;;;;0.70;0.70;;;;;;;;;;5096150;28;20577;-84
2023/04/27 04:33:36;;;;;;;0.50;0.50;;;;;;;;;;5098321;28;20280;-85
2023/04/27 04:36:05;;;;;;;0.70;0.70;;;;;;;;;;5098923;28;20177;-84
2023/04/27 04:38:32;;;;;;;0.60;0.60;;;;;;;;;;5100064;28;20258;-85
2023/04/27 04:40:58;;;;;;;0.63;0.63;;;;;;;;;;5100152;28;20185;-85
2023/04/27 04:43:23;;;;;;;0.70;0.70;;;;;;;;;;5099323;28;20656;-84
2023/04/27 04:45:50;;;;;;;0.60;0.60;;;;;;;;;;5098277;28;20646;-85
2023/04/27 04:48:16;;;;;;;0.70;0.70;;;;;;;;;;5100691;28;20233;-84
2023/04/27 04:50:42;;;;;;;0.70;0.70;;;;;;;;;;5101140;28;20182;-85
2023/04/27 04:53:08;;;;;;;0.60;0.60;;;;;;;;;;5099575;28;20769;-85
2023/04/27 04:55:34;;;;;;;0.60;0.60;;;;;;;;;;5099448;28;20185;-84
2023/04/27 04:58:00;;;;;;;0.80;0.80;;;;;;;;;;5099372;28;20272;-85
2023/04/27 05:00:26;;;;;;;0.80;0.80;;;;;;;;;;5099751;28;20193;-84
2023/04/27 05:02:52;;;;;;;0.70;0.70;;;;;;;;;;5097452;28;20181;-85
2023/04/27 05:05:18;;;;;;;0.70;0.70;;;;;;;;;;5097518;28;20296;-85
2023/04/27 05:07:44;;;;;;;0.70;0.70;;;;;;;;;;5092067;28;20236;-85
2023/04/27 05:10:10;;;;;;;0.67;0.67;;;;;;;;;;5082601;28;20182;-84
2023/04/27 05:12:36;;;;;;;0.70;0.70;;;;;;;;;;5121721;28;20183;-84
2023/04/27 05:15:02;;;;;;;0.60;0.60;;;;;;;;;;5112005;28;20185;-84
2023/04/27 05:17:28;;;;;;;0.60;0.60;;;;;;;;;;5108829;28;20170;-87
2023/04/27 05:19:54;;;;;;;0.60;0.60;;;;;;;;;;5100693;28;20437;-85
2023/04/27 05:22:20;;;;;;;0.63;0.63;;;;;;;;;;5101012;28;20170;-84
2023/04/27 05:24:46;;;;;;;0.80;0.80;;;;;;;;;;5102574;28;20205;-82
2023/04/27 05:27:16;;;;;;;0.70;0.70;;;;;;;;;;5098107;28;20213;-83
2023/04/27 05:29:42;;;;;;;0.70;0.70;;;;;;;;;;5092411;28;20295;-83
2023/04/27 05:32:08;;;;;;;0.60;0.60;;;;;;;;;;5099346;28;20170;-82
2023/04/27 05:34:35;;;;;;;0.70;0.70;;;;;;;;;;5101297;28;20281;-83
2023/04/27 05:37:01;;;;;;;0.63;0.63;;;;;;;;;;5098679;28;20277;-83
2023/04/27 05:39:27;;;;;;;0.70;0.70;;;;;;;;;;5095307;28;20202;-83
2023/04/27 05:41:53;;;;;;;0.60;0.60;;;;;;;;;;5087478;28;20270;-83
2023/04/27 05:44:19;;;;;;;0.60;0.60;;;;;;;;;;5078127;28;20201;-84
2023/04/27 05:46:45;;;;;;;0.80;0.80;;;;;;;;;;5095793;28;20213;-83
2023/04/27 05:49:11;;;;;;;0.70;0.70;;;;;;;;;;5096795;28;20174;-81
2023/04/27 05:51:37;;;;;;;0.67;0.67;;;;;;;;;;5095109;28;20193;-81
2023/04/27 05:54:03;;;;;;;0.60;0.60;;;;;;;;;;5082649;28;20622;-80
2023/04/27 05:56:29;;;;;;;0.60;0.60;;;;;;;;;;5088195;28;20174;-80
2023/04/27 05:58:55;;;;;;;0.67;0.67;;;;;;;;;;5088343;28;20209;-81
2023/04/27 06:01:22;;;;;;;0.67;0.67;;;;;;;;;;5095860;28;20177;-81
2023/04/27 06:03:48;;;;;;;0.70;0.70;;;;;;;;;;5090547;28;20190;-80
2023/04/27 06:06:14;;;;;;;0.70;0.70;;;;;;;;;;5097096;28;20165;-81
2023/04/27 06:08:40;;;;;;;0.70;0.70;;;;;;;;;;5094910;28;20177;-80
2023/04/27 06:11:06;;;;;;;0.70;0.70;;;;;;;;;;5095311;28;20629;-80
2023/04/27 06:13:32;;;;;;;0.80;0.80;;;;;;;;;;5095891;28;20201;-82
2023/04/27 06:15:59;;;;;;;0.60;0.60;;;;;;;;;;5097800;28;20169;-82
2023/04/27 06:18:25;;;;;;;0.60;0.60;;;;;;;;;;5095749;28;20177;-79
2023/04/27 06:20:51;;;;;;;0.60;0.60;;;;;;;;;;5090000;28;20176;-78
2023/04/27 06:23:17;;;;;;;0.70;0.70;;;;;;;;;;5086887;28;20582;-80
2023/04/27 06:25:43;;;;;;;0.70;0.70;;;;;;;;;;5077860;28;20253;-80
2023/04/27 06:28:09;;;;;;;0.70;0.70;;;;;;;;;;5084705;28;20217;-79
2023/04/27 06:30:35;;;;;;;0.60;0.60;;;;;;;;;;5098666;28;20169;-80
2023/04/27 06:33:01;;;;;;;0.50;0.50;;;;;;;;;;5111296;28;20182;-81
2023/04/27 06:35:27;;;;;;;0.50;0.50;;;;;;;;;;5105314;28;20676;-78
2023/04/27 06:37:57;;;;;;;0.60;0.60;;;;;;;;;;5085622;28;20196;-78
2023/04/27 06:40:23;;;;;;;0.70;0.70;;;;;;;;;;5096043;28;20170;-78
2023/04/27 06:42:49;;;;;;;0.70;0.70;;;;;;;;;;5092874;28;20252;-82
2023/04/27 06:45:15;;;;;;;0.70;0.70;;;;;;;;;;5079288;28;20198;-80
2023/04/27 06:47:41;;;;;;;0.60;0.60;;;;;;;;;;5082523;28;20219;-80
2023/04/27 06:50:07;;;;;;;0.53;0.53;;;;;;;;;;5098577;28;20170;-81
2023/04/27 06:52:33;;;;;;;0.50;0.50;;;;;;;;;;5080620;28;20175;-81
2023/04/27 06:54:59;;;;;;;0.50;0.50;;;;;;;;;;5079873;28;20205;-82
2023/04/27 06:57:25;;;;;;;0.50;0.50;;;;;;;;;;5078175;28;20197;-81
2023/04/27 06:59:51;;;;;;;0.47;0.47;;;;;;;;;;5079629;28;20182;-82
2023/04/27 07:02:17;;;;;;;0.50;0.50;;;;;;;;;;5078446;28;20608;-82
2023/04/27 07:04:43;;;;;;;0.60;0.60;;;;;;;;;;5078589;28;20183;-82
2023/04/27 07:07:09;;;;;;;0.43;0.43;;;;;;;;;;5078765;28;20206;-81
2023/04/27 07:09:36;;;;;;;0.57;0.57;;;;;;;;;;5078102;28;20200;-81
2023/04/27 07:12:02;;;;;;;0.50;0.50;;;;;;;;;;5078416;28;20192;-81
2023/04/27 07:14:29;;;;;;;0.50;0.50;;;;;;;;;;5077703;28;20198;-84
2023/04/27 07:16:55;;;;;;;0.50;0.50;;;;;;;;;;5078295;28;20171;-83
2023/04/27 07:19:21;;;;;;;0.60;0.60;;;;;;;;;;5059853;28;20175;-81
2023/04/27 07:21:48;;;;;;;0.40;0.40;;;;;;;;;;5077873;28;20170;-81
2023/04/27 07:24:14;;;;;;;0.50;0.50;;;;;;;;;;5077714;28;20198;-80
2023/04/27 07:26:41;;;;;;;0.50;0.50;;;;;;;;;;5077995;28;20206;-81
2023/04/27 07:29:08;;;;;;;0.50;0.50;;;;;;;;;;5080968;28;20265;-79
2023/04/27 07:31:34;;;;;;;0.50;0.50;;;;;;;;;;5080047;28;20550;-79
2023/04/27 07:34:00;;;;;;;0.40;0.40;;;;;;;;;;5061420;28;20199;-81
2023/04/27 07:36:27;;;;;;;0.50;0.50;;;;;;;;;;5079461;28;20245;-80
2023/04/27 07:38:53;;;;;;;0.50;0.50;;;;;;;;;;5078241;28;20278;-81
2023/04/27 07:41:20;;;;;;;0.50;0.50;;;;;;;;;;5078986;28;20206;-79
2023/04/27 07:43:46;;;;;;;0.50;0.50;;;;;;;;;;5082079;28;20284;-80
2023/04/27 07:46:13;;;;;;;0.50;0.50;;;;;;;;;;5078812;28;20664;-81
2023/04/27 07:48:39;;;;;;;0.50;0.50;;;;;;;;;;5078648;28;20189;-82
2023/04/27 07:51:05;;;;;;;0.40;0.40;;;;;;;;;;5078302;28;20266;-79
2023/04/27 07:53:31;;;;;;;0.30;0.30;;;;;;;;;;5077426;28;20601;-79
2023/04/27 07:55:57;;;;;;;0.30;0.30;;;;;;;;;;5077252;28;20185;-80
2023/04/27 07:58:22;;;;;;;0.30;0.30;;;;;;;;;;5076131;28;20568;-79
2023/04/27 08:00:48;;;;;;;0.40;0.40;;;;;;;;;;5075747;28;20174;-78
2023/04/27 08:03:15;;;;;;;0.40;0.40;;;;;;;;;;5076551;28;20232;-81
2023/04/27 08:05:41;;;;;;;0.40;0.40;;;;;;;;;;5075650;28;20264;-80
2023/04/27 08:08:07;;;;;;;0.30;0.30;;;;;;;;;;5075299;28;20623;-80
2023/04/27 08:10:33;;;;;;;0.30;0.30;;;;;;;;;;5075590;28;20174;-79
2023/04/27 08:12:59;;;;;;;0.40;0.40;;;;;;;;;;5074814;28;20608;-78
2023/04/27 08:15:25;;;;;;;0.30;0.30;;;;;;;;;;5075456;28;20221;-80
2023/04/27 08:17:51;;;;;;;0.30;0.30;;;;;;;;;;5076240;28;20170;-80
2023/04/27 08:20:17;;;;;;;0.40;0.40;;;;;;;;;;5075570;28;20182;-81
2023/04/27 08:22:43;;;;;;;0.30;0.30;;;;;;;;;;5077987;28;20193;-82
2023/04/27 08:25:09;;;;;;;0.30;0.30;;;;;;;;;;5096640;28;20206;-79
2023/04/27 08:27:39;;;;;;;0.30;0.30;;;;;;;;;;5096010;28;20306;-79
2023/04/27 08:30:05;;;;;;;0.40;0.40;;;;;;;;;;5098647;28;20603;-81
2023/04/27 08:32:31;;;;;;;0.30;0.30;;;;;;;;;;5097699;28;20312;-80
2023/04/27 08:34:57;;;;;;;0.30;0.30;;;;;;;;;;5098527;28;20200;-79
2023/04/27 08:37:23;;;;;;;0.37;0.37;;;;;;;;;;5097530;28;20174;-79
2023/04/27 08:39:49;;;;;;;0.43;0.43;;;;;;;;;;5098532;28;20181;-79
2023/04/27 08:42:15;;;;;;;0.30;0.30;;;;;;;;;;5098888;28;20182;-79
2023/04/27 08:44:42;;;;;;;0.30;0.30;;;;;;;;;;5098846;28;20211;-80
2023/04/27 08:47:08;;;;;;;0.30;0.30;;;;;;;;;;5097396;28;20350;-79
2023/04/27 08:49:37;;;;;;;0.37;0.37;;;;;;;;;;5099584;28;20178;-82
2023/04/27 08:52:03;;;;;;;0.37;0.37;;;;;;;;;;5098356;28;20178;-79
2023/04/27 08:54:29;;;;;;;0.30;0.30;;;;;;;;;;5097150;28;20250;-79
2023/04/27 08:56:55;;;;;;;0.40;0.40;;;;;;;;;;5096663;28;20174;-78
2023/04/27 08:59:22;;;;;;;0.40;0.40;;;;;;;;;;5076077;28;20227;-80
2023/04/27 09:01:48;;;;;;;0.40;0.40;;;;;;;;;;5076800;28;20179;-81
2023/04/27 09:04:15;;;;;;;0.40;0.40;;;;;;;;;;5077588;28;20198;-79
2023/04/27 09:06:41;;;;;;;0.30;0.30;;;;;;;;;;5078089;28;20614;-79
2023/04/27 09:09:07;;;;;;;0.40;0.40;;;;;;;;;;5078036;28;20190;-80
2023/04/27 09:11:35;;;;;;;0.40;0.40;;;;;;;;;;5078606;28;20541;-80
2023/04/27 09:14:02;;;;;;;0.30;0.30;;;;;;;;;;5075885;28;20691;-79
2023/04/27 09:16:29;;;;;;;0.43;0.43;;;;;;;;;;5086190;28;20646;-79
2023/04/27 09:18:56;;;;;;;0.50;0.50;;;;;;;;;;5078551;28;20177;-81
2023/04/27 09:21:26;;;;;;;0.40;0.40;;;;;;;;;;5081687;28;20186;-79
2023/04/27 09:23:52;;;;;;;0.40;0.40;;;;;;;;;;5085315;28;20224;-80
2023/04/27 09:26:22;;;;;;;0.40;0.40;;;;;;;;;;5092212;28;20199;-81
2023/04/27 09:28:49;;;;;;;0.33;0.33;;;;;;;;;;5080450;28;20289;-79
2023/04/27 09:31:15;;;;;;;0.40;0.40;;;;;;;;;;5086584;28;20193;-78
2023/04/27 09:33:42;;;;;;;0.30;0.30;;;;;;;;;;5087895;28;20193;-78
2023/04/27 09:36:09;;;;;;;0.40;0.40;;;;;;;;;;5086662;28;20178;-78
2023/04/27 09:38:35;;;;;;;0.30;0.30;;;;;;;;;;5089716;28;20660;-78
2023/04/27 09:41:01;;;;;;;0.33;0.33;;;;;;;;;;5092474;28;20174;-78
2023/04/27 09:43:28;;;;;;;0.40;0.40;;;;;;;;;;5078046;28;20193;-79
2023/04/27 09:45:54;;;;;;;0.30;0.30;;;;;;;;;;5088451;28;20201;-78
2023/04/27 09:48:24;;;;;;;0.33;0.33;;;;;;;;;;5085756;28;20202;-78
2023/04/27 09:50:51;;;;;;;0.40;0.40;;;;;;;;;;5090725;28;20258;-77
2023/04/27 09:53:18;;;;;;;0.40;0.40;;;;;;;;;;5088018;28;20171;-78
2023/04/27 09:55:54;;;;;;;0.30;0.30;;;;;;;;;;5089906;28;20185;-77
2023/04/27 09:58:43;;;;;;;0.30;0.30;;;;;;;;;;5090693;28;20181;-77
2023/04/27 10:01:18;;;;;;;0.30;0.30;;;;;;;;;;5081170;28;20170;-77
2023/04/27 10:03:47;;;;;;;0.43;0.43;;;;;;;;;;5088217;28;20550;-78
2023/04/27 10:06:19;;;;;;;0.40;0.40;;;;;;;;;;5074503;28;20238;-80
2023/04/27 10:08:45;;;;;;;0.40;0.40;;;;;;;;;;5082249;28;20178;-79
2023/04/27 10:11:16;;;;;;;0.40;0.40;;;;;;;;;;5094494;28;20178;-79
2023/04/27 10:13:52;;;;;;;0.40;0.40;;;;;;;;;;5087384;28;20209;-78
2023/04/27 10:16:19;;;;;;;0.30;0.30;;;;;;;;;;5100313;28;20268;-80
2023/04/27 10:18:55;;;;;;;0.40;0.40;;;;;;;;;;5062903;28;20642;-79
2023/04/27 10:21:21;;;;;;;0.40;0.40;;;;;;;;;;5087843;28;20200;-79
2023/04/27 10:23:49;;;;;;;0.40;0.40;;;;;;;;;;5086901;28;20207;-78
2023/04/27 10:26:25;;;;;;;0.33;0.33;;;;;;;;;;5090675;28;20204;-78
2023/04/27 10:28:57;;;;;;;0.30;0.30;;;;;;;;;;5080007;28;20178;-78
2023/04/27 10:31:29;;;;;;;0.40;0.40;;;;;;;;;;5091944;28;20642;-78
2023/04/27 10:34:07;;;;;;;0.40;0.40;;;;;;;;;;5085855;28;20198;-78
2023/04/27 10:36:40;;;;;;;0.40;0.40;;;;;;;;;;5082812;28;20198;-80
2023/04/27 10:39:21;;;;;;;0.40;0.40;;;;;;;;;;5085291;28;20178;-78
2023/04/27 10:41:50;;;;;;;0.37;0.37;;;;;;;;;;5099894;28;20177;-79
2023/04/27 10:44:17;;;;;;;0.40;0.40;;;;;;;;;;5098344;28;20209;-78
2023/04/27 10:46:50;;;;;;;0.40;0.40;;;;;;;;;;5100220;28;20231;-81
2023/04/27 10:49:16;;;;;;;0.37;0.37;;;;;;;;;;5098986;28;20170;-80
2023/04/27 10:51:42;;;;;;;0.20;0.20;;;;;;;;;;5098011;28;20186;-78
2023/04/27 10:54:08;;;;;;;0.30;0.30;;;;;;;;;;5097671;28;20205;-78
2023/04/27 10:56:34;;;;;;;0.30;0.30;;;;;;;;;;5098710;28;20208;-79
2023/04/27 10:59:04;;;;;;;0.30;0.30;;;;;;;;;;5097815;28;20193;-79
2023/04/27 11:01:30;;;;;;;0.40;0.40;;;;;;;;;;5099790;28;20181;-78
2023/04/27 11:04:00;;;;;;;0.30;0.30;;;;;;;;;;5099438;28;20194;-79
2023/04/27 11:06:27;;;;;;;0.30;0.30;;;;;;;;;;5094912;28;20271;-78
2023/04/27 11:08:53;;;;;;;0.30;0.30;;;;;;;;;;5090824;28;20188;-79
2023/04/27 11:11:19;;;;;;;0.40;0.40;;;;;;;;;;5100277;28;20182;-80
2023/04/27 11:13:47;;;;;;;0.30;0.30;;;;;;;;;;5089560;28;20214;-78
2023/04/27 11:16:15;;;;;;;0.33;0.33;;;;;;;;;;5092883;28;20178;-78
2023/04/27 11:18:41;;;;;;;0.30;0.30;;;;;;;;;;5099089;28;20174;-78
2023/04/27 11:21:11;;;;;;;0.30;0.30;;;;;;;;;;5099775;28;20197;-79
2023/04/27 11:23:38;;;;;;;0.33;0.33;;;;;;;;;;5098869;28;20200;-77
2023/04/27 11:26:10;;;;;;;0.40;0.40;;;;;;;;;;5098022;28;20181;-78
2023/04/27 11:28:36;;;;;;;0.30;0.30;;;;;;;;;;5086942;28;20214;-78
2023/04/27 11:31:05;;;;;;;0.50;0.50;;;;;;;;;;5078781;28;20178;-79
2023/04/27 11:33:31;;;;;;;0.37;0.37;;;;;;;;;;5078045;28;20280;-79
2023/04/27 11:35:57;;;;;;;0.50;0.50;;;;;;;;;;5080070;28;20573;-80
2023/04/27 11:38:23;;;;;;;0.40;0.40;;;;;;;;;;5079799;28;20185;-79
2023/04/27 11:40:59;;;;;;;0.40;0.40;;;;;;;;;;5079813;28;20175;-79
2023/04/27 11:43:26;;;;;;;0.37;0.37;;;;;;;;;;5079347;28;20198;-79
2023/04/27 11:45:52;;;;;;;0.40;0.40;;;;;;;;;;5079918;28;20193;-81
2023/04/27 11:48:19;;;;;;;0.40;0.40;;;;;;;;;;5078915;28;20555;-81
2023/04/27 11:50:48;;;;;;;0.40;0.40;;;;;;;;;;5078870;28;20174;-80
2023/04/27 11:53:14;;;;;;;0.47;0.47;;;;;;;;;;5078961;28;20182;-81
2023/04/27 11:55:41;;;;;;;0.30;0.30;;;;;;;;;;5078765;28;20186;-83
2023/04/27 11:58:15;;;;;;;0.40;0.40;;;;;;;;;;5077631;28;20197;-82
2023/04/27 12:00:41;;;;;;;0.40;0.40;;;;;;;;;;5077027;28;20654;-83
2023/04/27 12:03:07;;;;;;;0.30;0.30;;;;;;;;;;5077715;28;20714;-84
2023/04/27 12:05:33;;;;;;;0.30;0.30;;;;;;;;;;5080043;28;20537;-84
2023/04/27 12:07:59;;;;;;;0.40;0.40;;;;;;;;;;5079169;28;20580;-82
2023/04/27 12:10:25;;;;;;;0.37;0.37;;;;;;;;;;5082443;28;20178;-82
2023/04/27 12:12:51;;;;;;;0.30;0.30;;;;;;;;;;5094626;28;20242;-79
2023/04/27 12:15:17;;;;;;;0.30;0.30;;;;;;;;;;5098200;28;20278;-83
2023/04/27 12:17:43;;;;;;;0.30;0.30;;;;;;;;;;5095548;28;20796;-82
2023/04/27 12:20:09;;;;;;;0.40;0.40;;;;;;;;;;5098588;28;20185;-82
2023/04/27 12:22:36;;;;;;;0.30;0.30;;;;;;;;;;5079926;28;20246;-83
2023/04/27 12:25:02;;;;;;;0.30;0.30;;;;;;;;;;5098242;28;20250;-82
2023/04/27 12:27:28;;;;;;;0.30;0.30;;;;;;;;;;5077734;28;20316;-82
2023/04/27 12:29:54;;;;;;;0.30;0.30;;;;;;;;;;5088473;28;20247;-81
2023/04/27 12:32:20;;;;;;;0.30;0.30;;;;;;;;;;5079118;28;20170;-81
2023/04/27 12:34:46;;;;;;;0.40;0.40;;;;;;;;;;5085987;28;20197;-82
2023/04/27 12:37:12;;;;;;;0.30;0.30;;;;;;;;;;5078180;28;20178;-81
2023/04/27 12:39:38;;;;;;;0.40;0.40;;;;;;;;;;5077544;28;20208;-82
2023/04/27 12:42:04;;;;;;;0.30;0.30;;;;;;;;;;5077838;28;20174;-81
2023/04/27 12:44:31;;;;;;;0.30;0.30;;;;;;;;;;5077894;28;20248;-82
2023/04/27 12:46:57;;;;;;;0.30;0.30;;;;;;;;;;5077518;28;20206;-81
2023/04/27 12:49:23;;;;;;;0.30;0.30;;;;;;;;;;5077886;28;20170;-82
2023/04/27 12:51:50;;;;;;;0.30;0.30;;;;;;;;;;5077762;28;20725;-80
2023/04/27 12:54:16;;;;;;;0.30;0.30;;;;;;;;;;5075911;28;20220;-80
2023/04/27 12:56:42;;;;;;;0.30;0.30;;;;;;;;;;5075207;28;20182;-79
2023/04/27 12:59:09;;;;;;;0.30;0.30;;;;;;;;;;5090311;28;20671;-80
2023/04/27 13:01:36;;;;;;;0.30;0.30;;;;;;;;;;5079812;28;20197;-81
2023/04/27 13:04:03;;;;;;;0.40;0.40;;;;;;;;;;5089716;28;20705;-82
2023/04/27 13:06:30;;;;;;;0.50;0.50;;;;;;;;;;5079064;28;20190;-81
2023/04/27 13:08:56;;;;;;;0.47;0.47;;;;;;;;;;5090350;28;20182;-80
2023/04/27 13:11:23;;;;;;;0.30;0.30;;;;;;;;;;5094890;28;20192;-78
2023/04/27 13:13:49;;;;;;;0.40;0.40;;;;;;;;;;5092665;28;20724;-82
2023/04/27 13:16:15;;;;;;;0.40;0.40;;;;;;;;;;5084811;28;20174;-81
2023/04/27 13:18:48;;;;;;;0.40;0.40;;;;;;;;;;5084978;28;20174;-83
2023/04/27 13:21:14;;;;;;;0.40;0.40;;;;;;;;;;5084681;28;20166;-83
2023/04/27 13:23:40;;;;;;;0.33;0.33;;;;;;;;;;5087921;28;20278;-82
2023/04/27 13:26:06;;;;;;;0.40;0.40;;;;;;;;;;5086953;28;20178;-82
2023/04/27 13:28:32;;;;;;;0.30;0.30;;;;;;;;;;5091976;28;20617;-82
2023/04/27 13:30:58;;;;;;;0.30;0.30;;;;;;;;;;5080818;28;20186;-81
2023/04/27 13:33:24;;;;;;;0.37;0.37;;;;;;;;;;5091226;28;20190;-81
2023/04/27 13:35:50;;;;;;;0.30;0.30;;;;;;;;;;5089796;28;20254;-84
2023/04/27 13:38:16;;;;;;;0.20;0.20;;;;;;;;;;5083232;28;20178;-84
2023/04/27 13:40:42;;;;;;;0.43;0.43;;;;;;;;;;5095033;28;20197;-81
2023/04/27 13:43:08;;;;;;;0.30;0.30;;;;;;;;;;5095469;28;20573;-83
2023/04/27 13:45:35;;;;;;;0.30;0.30;;;;;;;;;;5094616;28;20319;-82
2023/04/27 13:48:01;;;;;;;0.30;0.30;;;;;;;;;;5089394;28;20202;-82
2023/04/27 13:50:27;;;;;;;0.30;0.30;;;;;;;;;;5075420;28;20181;-85
2023/04/27 13:52:53;;;;;;;0.30;0.30;;;;;;;;;;5075261;28;20174;-83
2023/04/27 13:55:19;;;;;;;0.30;0.30;;;;;;;;;;5085438;28;20519;-83
2023/04/27 13:57:45;;;;;;;0.40;0.40;;;;;;;;;;5090622;28;20949;-85
2023/04/27 14:00:11;;;;;;;0.30;0.30;;;;;;;;;;5094720;28;20177;-84
2023/04/27 14:02:37;;;;;;;0.30;0.30;;;;;;;;;;5089565;28;20174;-83
2023/04/27 14:05:04;;;;;;;0.40;0.40;;;;;;;;;;5096504;28;20604;-82
2023/04/27 14:07:31;;;;;;;0.40;0.40;;;;;;;;;;5094630;28;20221;-83
2023/04/27 14:09:57;;;;;;;0.50;0.50;;;;;;;;;;5096477;28;20174;-83
2023/04/27 14:12:23;;;;;;;0.30;0.30;;;;;;;;;;5096634;28;20174;-83
2023/04/27 14:14:49;;;;;;;0.30;0.30;;;;;;;;;;5097357;28;20220;-83
2023/04/27 14:17:15;;;;;;;0.30;0.30;;;;;;;;;;5096757;28;20169;-83
2023/04/27 14:19:41;;;;;;;0.40;0.40;;;;;;;;;;5096421;28;20239;-85
2023/04/27 14:22:08;;;;;;;0.40;0.40;;;;;;;;;;5096379;28;20194;-84
2023/04/27 14:24:34;;;;;;;0.30;0.30;;;;;;;;;;5096282;28;20235;-84
2023/04/27 14:27:00;;;;;;;0.30;0.30;;;;;;;;;;5096285;28;20236;-82
2023/04/27 14:29:26;;;;;;;0.30;0.30;;;;;;;;;;5097120;28;20684;-83
2023/04/27 14:31:52;;;;;;;0.40;0.40;;;;;;;;;;5097352;28;20178;-83
2023/04/27 14:34:18;;;;;;;0.40;0.40;;;;;;;;;;5107498;28;20250;-82
2023/04/27 14:36:44;;;;;;;0.30;0.30;;;;;;;;;;5118786;28;20162;-86
2023/04/27 14:39:10;;;;;;;0.37;0.37;;;;;;;;;;5119423;28;20158;-87